sensor_id;sensor_type;location;lat;lon;timestamp;P1;durP1;ratioP1;P2;durP2;ratioP2
6053;SDS011;3055;50.886;14.814;2023-07-02T00:02:13;3.13;;;1.70;;
6053;SDS011;3055;50.886;14.814;2023-07-02T00:04:41;2.37;;;2.03;;
6053;SDS011;3055;50.886;14.814;2023-07-02T00:07:08;2.63;;;2.00;;
6053;SDS011;3055;50.886;14.814;2023-07-02T00:09:35;3.03;;;1.63;;
6053;SDS011;3055;50.886;14.814;2023-07-02T00:12:04;2.20;;;2.00;;
6053;SDS011;3055;50.886;14.814;2023-07-02T00:14:31;4.13;;;2.20;;
6053;SDS011;3055;50.886;14.814;2023-07-02T00:16:58;3.07;;;1.93;;
6053;SDS011;3055;50.886;14.814;2023-07-02T00:19:25;2.00;;;1.80;;
6053;SDS011;3055;50.886;14.814;2023-07-02T00:21:52;1.93;;;1.83;;
6053;SDS011;3055;50.886;14.814;2023-07-02T00:24:20;2.73;;;2.00;;
6053;SDS011;3055;50.886;14.814;2023-07-02T00:26:47;2.70;;;2.10;;
6053;SDS011;3055;50.886;14.814;2023-07-02T00:29:15;1.93;;;1.73;;
6053;SDS011;3055;50.886;14.814;2023-07-02T00:31:43;3.00;;;2.10;;
6053;SDS011;3055;50.886;14.814;2023-07-02T00:34:10;2.77;;;1.80;;
6053;SDS011;3055;50.886;14.814;2023-07-02T00:36:37;3.73;;;2.10;;
6053;SDS011;3055;50.886;14.814;2023-07-02T00:39:04;2.50;;;2.10;;
6053;SDS011;3055;50.886;14.814;2023-07-02T00:41:32;2.07;;;1.97;;
6053;SDS011;3055;50.886;14.814;2023-07-02T00:43:59;2.90;;;1.87;;
6053;SDS011;3055;50.886;14.814;2023-07-02T00:46:27;3.43;;;1.70;;
6053;SDS011;3055;50.886;14.814;2023-07-02T00:48:55;1.90;;;1.77;;
6053;SDS011;3055;50.886;14.814;2023-07-02T00:51:23;1.70;;;1.60;;
6053;SDS011;3055;50.886;14.814;2023-07-02T00:53:51;2.90;;;2.07;;
6053;SDS011;3055;50.886;14.814;2023-07-02T00:56:20;2.70;;;1.67;;
6053;SDS011;3055;50.886;14.814;2023-07-02T00:58:48;3.30;;;1.73;;
6053;SDS011;3055;50.886;14.814;2023-07-02T01:01:16;2.03;;;1.83;;
6053;SDS011;3055;50.886;14.814;2023-07-02T01:03:52;3.50;;;1.50;;
6053;SDS011;3055;50.886;14.814;2023-07-02T01:06:25;2.50;;;1.60;;
6053;SDS011;3055;50.886;14.814;2023-07-02T01:08:57;2.07;;;1.60;;
6053;SDS011;3055;50.886;14.814;2023-07-02T01:11:25;1.63;;;1.40;;
6053;SDS011;3055;50.886;14.814;2023-07-02T01:13:55;1.60;;;1.50;;
6053;SDS011;3055;50.886;14.814;2023-07-02T01:16:27;1.53;;;1.40;;
6053;SDS011;3055;50.886;14.814;2023-07-02T01:18:59;1.57;;;1.40;;
6053;SDS011;3055;50.886;14.814;2023-07-02T01:21:30;1.77;;;1.50;;
6053;SDS011;3055;50.886;14.814;2023-07-02T01:23:58;1.83;;;1.60;;
6053;SDS011;3055;50.886;14.814;2023-07-02T01:26:27;3.43;;;1.80;;
6053;SDS011;3055;50.886;14.814;2023-07-02T01:28:56;2.00;;;1.80;;
6053;SDS011;3055;50.886;14.814;2023-07-02T01:31:23;3.87;;;1.67;;
6053;SDS011;3055;50.886;14.814;2023-07-02T01:33:50;2.93;;;1.50;;
6053;SDS011;3055;50.886;14.814;2023-07-02T01:36:18;1.63;;;1.53;;
6053;SDS011;3055;50.886;14.814;2023-07-02T01:38:46;2.60;;;1.70;;
6053;SDS011;3055;50.886;14.814;2023-07-02T01:41:13;2.43;;;1.43;;
6053;SDS011;3055;50.886;14.814;2023-07-02T01:43:40;2.70;;;1.50;;
6053;SDS011;3055;50.886;14.814;2023-07-02T01:46:07;1.37;;;1.23;;
6053;SDS011;3055;50.886;14.814;2023-07-02T01:48:34;1.63;;;1.53;;
6053;SDS011;3055;50.886;14.814;2023-07-02T01:51:01;1.50;;;1.40;;
6053;SDS011;3055;50.886;14.814;2023-07-02T01:53:29;1.50;;;1.40;;
6053;SDS011;3055;50.886;14.814;2023-07-02T01:55:57;1.50;;;1.40;;
6053;SDS011;3055;50.886;14.814;2023-07-02T01:58:24;1.70;;;1.60;;
6053;SDS011;3055;50.886;14.814;2023-07-02T02:00:51;2.00;;;1.63;;
6053;SDS011;3055;50.886;14.814;2023-07-02T02:03:19;1.70;;;1.50;;
6053;SDS011;3055;50.886;14.814;2023-07-02T02:05:48;1.77;;;1.67;;
6053;SDS011;3055;50.886;14.814;2023-07-02T02:08:15;1.37;;;1.27;;
6053;SDS011;3055;50.886;14.814;2023-07-02T02:10:42;1.80;;;1.70;;
6053;SDS011;3055;50.886;14.814;2023-07-02T02:13:10;1.70;;;1.60;;
6053;SDS011;3055;50.886;14.814;2023-07-02T02:15:37;2.47;;;1.90;;
6053;SDS011;3055;50.886;14.814;2023-07-02T02:18:06;2.30;;;1.30;;
6053;SDS011;3055;50.886;14.814;2023-07-02T02:20:33;3.30;;;1.70;;
6053;SDS011;3055;50.886;14.814;2023-07-02T02:23:00;2.43;;;1.53;;
6053;SDS011;3055;50.886;14.814;2023-07-02T02:25:27;1.40;;;1.30;;
6053;SDS011;3055;50.886;14.814;2023-07-02T02:27:54;1.60;;;1.50;;
6053;SDS011;3055;50.886;14.814;2023-07-02T02:30:23;1.50;;;1.40;;
6053;SDS011;3055;50.886;14.814;2023-07-02T02:32:50;2.07;;;1.50;;
6053;SDS011;3055;50.886;14.814;2023-07-02T02:35:17;1.40;;;1.30;;
6053;SDS011;3055;50.886;14.814;2023-07-02T02:37:44;2.27;;;1.50;;
6053;SDS011;3055;50.886;14.814;2023-07-02T02:40:11;1.40;;;1.30;;
6053;SDS011;3055;50.886;14.814;2023-07-02T02:42:38;1.73;;;1.37;;
6053;SDS011;3055;50.886;14.814;2023-07-02T02:45:06;1.30;;;1.20;;
6053;SDS011;3055;50.886;14.814;2023-07-02T02:47:35;1.40;;;1.30;;
6053;SDS011;3055;50.886;14.814;2023-07-02T02:50:02;1.20;;;1.20;;
6053;SDS011;3055;50.886;14.814;2023-07-02T02:52:30;1.70;;;1.27;;
6053;SDS011;3055;50.886;14.814;2023-07-02T02:54:57;1.33;;;1.23;;
6053;SDS011;3055;50.886;14.814;2023-07-02T02:57:24;1.40;;;1.30;;
6053;SDS011;3055;50.886;14.814;2023-07-02T02:59:51;1.90;;;1.50;;
6053;SDS011;3055;50.886;14.814;2023-07-02T03:02:18;2.00;;;1.30;;
6053;SDS011;3055;50.886;14.814;2023-07-02T03:04:47;1.60;;;1.50;;
6053;SDS011;3055;50.886;14.814;2023-07-02T03:07:14;2.13;;;1.40;;
6053;SDS011;3055;50.886;14.814;2023-07-02T03:09:41;1.40;;;1.30;;
6053;SDS011;3055;50.886;14.814;2023-07-02T03:12:09;3.17;;;1.50;;
6053;SDS011;3055;50.886;14.814;2023-07-02T03:14:36;1.73;;;1.10;;
6053;SDS011;3055;50.886;14.814;2023-07-02T03:17:03;1.30;;;1.20;;
6053;SDS011;3055;50.886;14.814;2023-07-02T03:19:30;1.60;;;1.50;;
6053;SDS011;3055;50.886;14.814;2023-07-02T03:21:59;1.40;;;1.30;;
6053;SDS011;3055;50.886;14.814;2023-07-02T03:24:26;1.63;;;1.53;;
6053;SDS011;3055;50.886;14.814;2023-07-02T03:26:53;1.63;;;1.50;;
6053;SDS011;3055;50.886;14.814;2023-07-02T03:29:20;1.90;;;1.50;;
6053;SDS011;3055;50.886;14.814;2023-07-02T03:31:47;1.60;;;1.50;;
6053;SDS011;3055;50.886;14.814;2023-07-02T03:34:14;1.87;;;1.30;;
6053;SDS011;3055;50.886;14.814;2023-07-02T03:36:41;1.40;;;1.30;;
6053;SDS011;3055;50.886;14.814;2023-07-02T03:39:10;1.20;;;1.10;;
6053;SDS011;3055;50.886;14.814;2023-07-02T03:41:37;1.40;;;1.30;;
6053;SDS011;3055;50.886;14.814;2023-07-02T03:44:04;1.37;;;1.27;;
6053;SDS011;3055;50.886;14.814;2023-07-02T03:46:31;1.10;;;1.10;;
6053;SDS011;3055;50.886;14.814;2023-07-02T03:48:58;1.40;;;1.30;;
6053;SDS011;3055;50.886;14.814;2023-07-02T03:51:25;1.33;;;1.23;;
6053;SDS011;3055;50.886;14.814;2023-07-02T03:53:52;1.10;;;1.10;;
6053;SDS011;3055;50.886;14.814;2023-07-02T03:56:21;1.50;;;1.40;;
6053;SDS011;3055;50.886;14.814;2023-07-02T03:58:48;1.50;;;1.40;;
6053;SDS011;3055;50.886;14.814;2023-07-02T04:01:15;1.43;;;1.33;;
6053;SDS011;3055;50.886;14.814;2023-07-02T04:03:47;1.10;;;1.00;;
6053;SDS011;3055;50.886;14.814;2023-07-02T04:06:15;1.10;;;1.10;;
6053;SDS011;3055;50.886;14.814;2023-07-02T04:08:42;1.50;;;1.40;;
6053;SDS011;3055;50.886;14.814;2023-07-02T04:11:09;1.63;;;1.50;;
6053;SDS011;3055;50.886;14.814;2023-07-02T04:13:38;1.50;;;1.40;;
6053;SDS011;3055;50.886;14.814;2023-07-02T04:16:06;1.87;;;1.67;;
6053;SDS011;3055;50.886;14.814;2023-07-02T04:18:33;1.87;;;1.50;;
6053;SDS011;3055;50.886;14.814;2023-07-02T04:21:01;1.57;;;1.47;;
6053;SDS011;3055;50.886;14.814;2023-07-02T04:23:29;1.40;;;1.30;;
6053;SDS011;3055;50.886;14.814;2023-07-02T04:25:56;1.60;;;1.50;;
6053;SDS011;3055;50.886;14.814;2023-07-02T04:28:23;1.63;;;1.53;;
6053;SDS011;3055;50.886;14.814;2023-07-02T04:30:51;1.50;;;1.40;;
6053;SDS011;3055;50.886;14.814;2023-07-02T04:33:18;1.60;;;1.50;;
6053;SDS011;3055;50.886;14.814;2023-07-02T04:35:45;3.03;;;1.60;;
6053;SDS011;3055;50.886;14.814;2023-07-02T04:38:12;1.77;;;1.60;;
6053;SDS011;3055;50.886;14.814;2023-07-02T04:40:39;1.93;;;1.50;;
6053;SDS011;3055;50.886;14.814;2023-07-02T04:43:09;1.30;;;1.30;;
6053;SDS011;3055;50.886;14.814;2023-07-02T04:45:37;1.63;;;1.53;;
6053;SDS011;3055;50.886;14.814;2023-07-02T04:48:06;1.60;;;1.50;;
6053;SDS011;3055;50.886;14.814;2023-07-02T04:50:33;1.60;;;1.50;;
6053;SDS011;3055;50.886;14.814;2023-07-02T04:53:00;1.67;;;1.53;;
6053;SDS011;3055;50.886;14.814;2023-07-02T04:55:27;1.50;;;1.40;;
6053;SDS011;3055;50.886;14.814;2023-07-02T04:57:54;1.73;;;1.33;;
6053;SDS011;3055;50.886;14.814;2023-07-02T05:00:21;2.13;;;1.67;;
6053;SDS011;3055;50.886;14.814;2023-07-02T05:02:49;1.50;;;1.40;;
6053;SDS011;3055;50.886;14.814;2023-07-02T05:05:17;2.13;;;1.50;;
6053;SDS011;3055;50.886;14.814;2023-07-02T05:07:44;1.60;;;1.50;;
6053;SDS011;3055;50.886;14.814;2023-07-02T05:10:11;1.73;;;1.30;;
6053;SDS011;3055;50.886;14.814;2023-07-02T05:12:39;2.07;;;1.77;;
6053;SDS011;3055;50.886;14.814;2023-07-02T05:15:06;2.17;;;1.40;;
6053;SDS011;3055;50.886;14.814;2023-07-02T05:17:34;2.53;;;1.80;;
6053;SDS011;3055;50.886;14.814;2023-07-02T05:20:01;2.70;;;1.60;;
6053;SDS011;3055;50.886;14.814;2023-07-02T05:22:31;1.73;;;1.40;;
6053;SDS011;3055;50.886;14.814;2023-07-02T05:24:58;1.60;;;1.50;;
6053;SDS011;3055;50.886;14.814;2023-07-02T05:27:25;2.10;;;1.60;;
6053;SDS011;3055;50.886;14.814;2023-07-02T05:29:52;1.77;;;1.67;;
6053;SDS011;3055;50.886;14.814;2023-07-02T05:32:19;2.40;;;2.20;;
6053;SDS011;3055;50.886;14.814;2023-07-02T05:34:46;2.33;;;2.13;;
6053;SDS011;3055;50.886;14.814;2023-07-02T05:37:13;2.33;;;2.20;;
6053;SDS011;3055;50.886;14.814;2023-07-02T05:39:41;2.50;;;2.00;;
6053;SDS011;3055;50.886;14.814;2023-07-02T05:42:08;2.50;;;2.30;;
6053;SDS011;3055;50.886;14.814;2023-07-02T05:44:35;2.20;;;2.00;;
6053;SDS011;3055;50.886;14.814;2023-07-02T05:47:03;2.80;;;2.50;;
6053;SDS011;3055;50.886;14.814;2023-07-02T05:49:30;3.73;;;2.50;;
6053;SDS011;3055;50.886;14.814;2023-07-02T05:51:57;2.10;;;2.00;;
6053;SDS011;3055;50.886;14.814;2023-07-02T05:54:24;3.00;;;2.30;;
6053;SDS011;3055;50.886;14.814;2023-07-02T05:56:52;3.00;;;2.03;;
6053;SDS011;3055;50.886;14.814;2023-07-02T05:59:19;2.27;;;2.17;;
6053;SDS011;3055;50.886;14.814;2023-07-02T06:01:46;2.43;;;2.23;;
6053;SDS011;3055;50.886;14.814;2023-07-02T06:04:13;2.10;;;2.00;;
6053;SDS011;3055;50.886;14.814;2023-07-02T06:06:40;2.37;;;2.17;;
6053;SDS011;3055;50.886;14.814;2023-07-02T06:09:07;3.10;;;2.40;;
6053;SDS011;3055;50.886;14.814;2023-07-02T06:11:34;3.37;;;2.27;;
6053;SDS011;3055;50.886;14.814;2023-07-02T06:14:04;2.50;;;2.27;;
6053;SDS011;3055;50.886;14.814;2023-07-02T06:16:31;2.90;;;2.70;;
6053;SDS011;3055;50.886;14.814;2023-07-02T06:18:58;3.00;;;2.80;;
6053;SDS011;3055;50.886;14.814;2023-07-02T06:21:25;2.90;;;2.70;;
6053;SDS011;3055;50.886;14.814;2023-07-02T06:23:54;3.33;;;3.13;;
6053;SDS011;3055;50.886;14.814;2023-07-02T06:26:23;2.97;;;2.73;;
6053;SDS011;3055;50.886;14.814;2023-07-02T06:28:50;4.60;;;2.80;;
6053;SDS011;3055;50.886;14.814;2023-07-02T06:31:19;3.13;;;2.80;;
6053;SDS011;3055;50.886;14.814;2023-07-02T06:33:46;3.30;;;3.00;;
6053;SDS011;3055;50.886;14.814;2023-07-02T06:36:13;3.37;;;3.07;;
6053;SDS011;3055;50.886;14.814;2023-07-02T06:38:40;2.97;;;2.77;;
6053;SDS011;3055;50.886;14.814;2023-07-02T06:41:07;2.97;;;2.73;;
6053;SDS011;3055;50.886;14.814;2023-07-02T06:43:34;2.93;;;2.73;;
6053;SDS011;3055;50.886;14.814;2023-07-02T06:46:01;2.90;;;2.57;;
6053;SDS011;3055;50.886;14.814;2023-07-02T06:48:30;3.10;;;2.90;;
6053;SDS011;3055;50.886;14.814;2023-07-02T06:50:58;3.20;;;2.90;;
6053;SDS011;3055;50.886;14.814;2023-07-02T06:53:25;3.10;;;2.70;;
6053;SDS011;3055;50.886;14.814;2023-07-02T06:55:52;4.10;;;2.70;;
6053;SDS011;3055;50.886;14.814;2023-07-02T06:58:19;3.10;;;2.90;;
6053;SDS011;3055;50.886;14.814;2023-07-02T07:00:46;4.00;;;2.70;;
6053;SDS011;3055;50.886;14.814;2023-07-02T07:03:13;2.53;;;2.33;;
6053;SDS011;3055;50.886;14.814;2023-07-02T07:05:42;2.60;;;2.40;;
6053;SDS011;3055;50.886;14.814;2023-07-02T07:08:09;2.83;;;2.63;;
6053;SDS011;3055;50.886;14.814;2023-07-02T07:10:36;3.20;;;3.00;;
6053;SDS011;3055;50.886;14.814;2023-07-02T07:13:03;4.87;;;2.80;;
6053;SDS011;3055;50.886;14.814;2023-07-02T07:15:32;3.00;;;2.57;;
6053;SDS011;3055;50.886;14.814;2023-07-02T07:18:00;3.20;;;2.90;;
6053;SDS011;3055;50.886;14.814;2023-07-02T07:20:28;2.90;;;2.60;;
6053;SDS011;3055;50.886;14.814;2023-07-02T07:22:56;3.27;;;2.93;;
6053;SDS011;3055;50.886;14.814;2023-07-02T07:25:23;2.93;;;2.73;;
6053;SDS011;3055;50.886;14.814;2023-07-02T07:27:51;2.60;;;2.40;;
6053;SDS011;3055;50.886;14.814;2023-07-02T07:30:18;2.53;;;2.23;;
6053;SDS011;3055;50.886;14.814;2023-07-02T07:32:48;2.67;;;2.47;;
6053;SDS011;3055;50.886;14.814;2023-07-02T07:35:16;2.50;;;2.30;;
6053;SDS011;3055;50.886;14.814;2023-07-02T07:37:43;2.40;;;2.20;;
6053;SDS011;3055;50.886;14.814;2023-07-02T07:40:12;2.97;;;2.67;;
6053;SDS011;3055;50.886;14.814;2023-07-02T07:42:39;3.00;;;2.70;;
6053;SDS011;3055;50.886;14.814;2023-07-02T07:45:07;2.57;;;2.40;;
6053;SDS011;3055;50.886;14.814;2023-07-02T07:47:36;3.73;;;2.60;;
6053;SDS011;3055;50.886;14.814;2023-07-02T07:50:03;3.03;;;2.83;;
6053;SDS011;3055;50.886;14.814;2023-07-02T07:52:35;2.83;;;2.50;;
6053;SDS011;3055;50.886;14.814;2023-07-02T07:55:03;2.67;;;2.47;;
6053;SDS011;3055;50.886;14.814;2023-07-02T07:57:32;2.50;;;2.30;;
6053;SDS011;3055;50.886;14.814;2023-07-02T08:00:00;2.40;;;2.20;;
6053;SDS011;3055;50.886;14.814;2023-07-02T08:02:29;3.67;;;2.10;;
6053;SDS011;3055;50.886;14.814;2023-07-02T08:04:56;2.70;;;2.50;;
6053;SDS011;3055;50.886;14.814;2023-07-02T08:07:23;2.60;;;2.40;;
6053;SDS011;3055;50.886;14.814;2023-07-02T08:09:50;2.40;;;2.20;;
6053;SDS011;3055;50.886;14.814;2023-07-02T08:12:17;3.67;;;2.30;;
6053;SDS011;3055;50.886;14.814;2023-07-02T08:14:46;2.83;;;2.63;;
6053;SDS011;3055;50.886;14.814;2023-07-02T08:17:13;2.10;;;1.90;;
6053;SDS011;3055;50.886;14.814;2023-07-02T08:19:40;3.63;;;2.17;;
6053;SDS011;3055;50.886;14.814;2023-07-02T08:22:07;2.33;;;2.13;;
6053;SDS011;3055;50.886;14.814;2023-07-02T08:24:34;2.57;;;2.37;;
6053;SDS011;3055;50.886;14.814;2023-07-02T08:27:01;2.50;;;2.30;;
6053;SDS011;3055;50.886;14.814;2023-07-02T08:29:29;2.07;;;1.97;;
6053;SDS011;3055;50.886;14.814;2023-07-02T08:31:58;2.37;;;2.17;;
6053;SDS011;3055;50.886;14.814;2023-07-02T08:34:25;2.63;;;2.30;;
6053;SDS011;3055;50.886;14.814;2023-07-02T08:36:53;3.37;;;2.10;;
6053;SDS011;3055;50.886;14.814;2023-07-02T08:39:20;1.83;;;1.73;;
6053;SDS011;3055;50.886;14.814;2023-07-02T08:41:48;2.93;;;2.57;;
6053;SDS011;3055;50.886;14.814;2023-07-02T08:44:17;2.30;;;2.10;;
6053;SDS011;3055;50.886;14.814;2023-07-02T08:46:46;2.63;;;2.43;;
6053;SDS011;3055;50.886;14.814;2023-07-02T08:49:17;2.20;;;2.00;;
6053;SDS011;3055;50.886;14.814;2023-07-02T08:51:44;2.73;;;2.53;;
6053;SDS011;3055;50.886;14.814;2023-07-02T08:54:13;3.77;;;2.07;;
6053;SDS011;3055;50.886;14.814;2023-07-02T08:56:40;2.60;;;2.40;;
6053;SDS011;3055;50.886;14.814;2023-07-02T08:59:07;2.20;;;2.10;;
6053;SDS011;3055;50.886;14.814;2023-07-02T09:01:44;2.47;;;2.10;;
6053;SDS011;3055;50.886;14.814;2023-07-02T09:04:17;2.53;;;2.33;;
6053;SDS011;3055;50.886;14.814;2023-07-02T09:06:44;2.30;;;2.10;;
6053;SDS011;3055;50.886;14.814;2023-07-02T09:09:12;2.37;;;2.17;;
6053;SDS011;3055;50.886;14.814;2023-07-02T09:11:48;3.37;;;2.20;;
6053;SDS011;3055;50.886;14.814;2023-07-02T09:14:26;2.13;;;2.00;;
6053;SDS011;3055;50.886;14.814;2023-07-02T09:17:04;2.30;;;2.20;;
6053;SDS011;3055;50.886;14.814;2023-07-02T09:19:33;4.03;;;2.07;;
6053;SDS011;3055;50.886;14.814;2023-07-02T09:22:01;2.30;;;2.10;;
6053;SDS011;3055;50.886;14.814;2023-07-02T09:24:29;2.17;;;2.07;;
6053;SDS011;3055;50.886;14.814;2023-07-02T09:26:58;3.60;;;1.70;;
6053;SDS011;3055;50.886;14.814;2023-07-02T09:29:27;3.30;;;2.00;;
6053;SDS011;3055;50.886;14.814;2023-07-02T09:31:55;2.03;;;1.90;;
6053;SDS011;3055;50.886;14.814;2023-07-02T09:34:27;2.30;;;1.90;;
6053;SDS011;3055;50.886;14.814;2023-07-02T09:36:56;3.87;;;2.00;;
6053;SDS011;3055;50.886;14.814;2023-07-02T09:39:25;2.20;;;1.83;;
6053;SDS011;3055;50.886;14.814;2023-07-02T09:41:55;2.13;;;1.93;;
6053;SDS011;3055;50.886;14.814;2023-07-02T09:44:25;3.40;;;1.50;;
6053;SDS011;3055;50.886;14.814;2023-07-02T09:46:55;3.00;;;1.73;;
6053;SDS011;3055;50.886;14.814;2023-07-02T09:49:26;1.50;;;1.40;;
6053;SDS011;3055;50.886;14.814;2023-07-02T09:51:59;2.63;;;1.57;;
6053;SDS011;3055;50.886;14.814;2023-07-02T09:54:27;1.70;;;1.60;;
6053;SDS011;3055;50.886;14.814;2023-07-02T09:56:54;2.87;;;1.70;;
6053;SDS011;3055;50.886;14.814;2023-07-02T09:59:22;3.50;;;1.87;;
6053;SDS011;3055;50.886;14.814;2023-07-02T10:01:50;2.27;;;1.50;;
6053;SDS011;3055;50.886;14.814;2023-07-02T10:04:18;3.23;;;1.70;;
6053;SDS011;3055;50.886;14.814;2023-07-02T10:06:48;2.17;;;1.93;;
6053;SDS011;3055;50.886;14.814;2023-07-02T10:09:19;1.87;;;1.70;;
6053;SDS011;3055;50.886;14.814;2023-07-02T10:11:46;1.70;;;1.60;;
6053;SDS011;3055;50.886;14.814;2023-07-02T10:14:14;2.50;;;1.90;;
6053;SDS011;3055;50.886;14.814;2023-07-02T10:16:51;1.83;;;1.70;;
6053;SDS011;3055;50.886;14.814;2023-07-02T10:19:18;2.80;;;2.00;;
6053;SDS011;3055;50.886;14.814;2023-07-02T10:21:46;1.47;;;1.37;;
6053;SDS011;3055;50.886;14.814;2023-07-02T10:24:28;2.23;;;2.10;;
6053;SDS011;3055;50.886;14.814;2023-07-02T10:26:56;1.60;;;1.50;;
6053;SDS011;3055;50.886;14.814;2023-07-02T10:29:24;2.50;;;2.00;;
6053;SDS011;3055;50.886;14.814;2023-07-02T10:31:52;3.13;;;1.80;;
6053;SDS011;3055;50.886;14.814;2023-07-02T10:34:30;2.00;;;1.63;;
6053;SDS011;3055;50.886;14.814;2023-07-02T10:36:57;2.20;;;2.00;;
6053;SDS011;3055;50.886;14.814;2023-07-02T10:39:26;1.73;;;1.63;;
6053;SDS011;3055;50.886;14.814;2023-07-02T10:42:03;3.60;;;1.80;;
6053;SDS011;3055;50.886;14.814;2023-07-02T10:44:30;2.53;;;1.67;;
6053;SDS011;3055;50.886;14.814;2023-07-02T10:46:59;2.73;;;1.80;;
6053;SDS011;3055;50.886;14.814;2023-07-02T10:49:30;1.73;;;1.63;;
6053;SDS011;3055;50.886;14.814;2023-07-02T10:51:58;2.27;;;1.70;;
6053;SDS011;3055;50.886;14.814;2023-07-02T10:54:25;1.90;;;1.80;;
6053;SDS011;3055;50.886;14.814;2023-07-02T10:57:05;2.00;;;1.80;;
6053;SDS011;3055;50.886;14.814;2023-07-02T11:26:09;4.50;;;1.57;;
6053;SDS011;3055;50.886;14.814;2023-07-02T11:28:46;1.40;;;1.30;;
6053;SDS011;3055;50.886;14.814;2023-07-02T11:31:23;3.43;;;1.90;;
6053;SDS011;3055;50.886;14.814;2023-07-02T11:33:51;1.60;;;1.33;;
6053;SDS011;3055;50.886;14.814;2023-07-02T11:36:19;2.47;;;1.67;;
6053;SDS011;3055;50.886;14.814;2023-07-02T11:38:48;1.67;;;1.57;;
6053;SDS011;3055;50.886;14.814;2023-07-02T11:41:17;1.80;;;1.70;;
6053;SDS011;3055;50.886;14.814;2023-07-02T11:43:45;1.53;;;1.43;;
6053;SDS011;3055;50.886;14.814;2023-07-02T11:46:13;1.90;;;1.70;;
6053;SDS011;3055;50.886;14.814;2023-07-02T11:48:40;1.77;;;1.37;;
6053;SDS011;3055;50.886;14.814;2023-07-02T11:51:08;2.60;;;1.63;;
6053;SDS011;3055;50.886;14.814;2023-07-02T11:53:35;1.70;;;1.60;;
6053;SDS011;3055;50.886;14.814;2023-07-02T11:56:02;2.00;;;1.80;;
6053;SDS011;3055;50.886;14.814;2023-07-02T11:58:31;1.80;;;1.70;;
6053;SDS011;3055;50.886;14.814;2023-07-02T12:00:58;1.77;;;1.67;;
6053;SDS011;3055;50.886;14.814;2023-07-02T12:03:25;1.63;;;1.53;;
6053;SDS011;3055;50.886;14.814;2023-07-02T12:05:55;1.90;;;1.67;;
6053;SDS011;3055;50.886;14.814;2023-07-02T12:08:22;1.70;;;1.60;;
6053;SDS011;3055;50.886;14.814;2023-07-02T12:10:49;2.27;;;1.30;;
6053;SDS011;3055;50.886;14.814;2023-07-02T12:13:16;3.60;;;1.50;;
6053;SDS011;3055;50.886;14.814;2023-07-02T12:15:47;1.60;;;1.50;;
6053;SDS011;3055;50.886;14.814;2023-07-02T12:18:15;1.57;;;1.47;;
6053;SDS011;3055;50.886;14.814;2023-07-02T12:20:42;1.50;;;1.40;;
6053;SDS011;3055;50.886;14.814;2023-07-02T12:23:09;1.70;;;1.60;;
6053;SDS011;3055;50.886;14.814;2023-07-02T12:25:36;2.27;;;1.77;;
6053;SDS011;3055;50.886;14.814;2023-07-02T12:28:04;1.97;;;1.63;;
6053;SDS011;3055;50.886;14.814;2023-07-02T12:30:31;2.00;;;1.47;;
6053;SDS011;3055;50.886;14.814;2023-07-02T12:32:59;1.73;;;1.40;;
6053;SDS011;3055;50.886;14.814;2023-07-02T12:35:26;1.87;;;1.77;;
6053;SDS011;3055;50.886;14.814;2023-07-02T12:37:54;3.03;;;1.43;;
6053;SDS011;3055;50.886;14.814;2023-07-02T12:40:21;1.70;;;1.60;;
6053;SDS011;3055;50.886;14.814;2023-07-02T12:42:48;1.67;;;1.57;;
6053;SDS011;3055;50.886;14.814;2023-07-02T12:45:15;1.70;;;1.60;;
6053;SDS011;3055;50.886;14.814;2023-07-02T12:47:43;2.03;;;1.60;;
6053;SDS011;3055;50.886;14.814;2023-07-02T12:50:11;4.50;;;1.60;;
6053;SDS011;3055;50.886;14.814;2023-07-02T12:52:38;1.60;;;1.50;;
6053;SDS011;3055;50.886;14.814;2023-07-02T12:55:06;3.37;;;1.37;;
6053;SDS011;3055;50.886;14.814;2023-07-02T12:57:33;2.23;;;1.40;;
6053;SDS011;3055;50.886;14.814;2023-07-02T13:00:01;1.70;;;1.60;;
6053;SDS011;3055;50.886;14.814;2023-07-02T13:02:31;2.13;;;1.50;;
6053;SDS011;3055;50.886;14.814;2023-07-02T13:04:58;3.00;;;1.60;;
6053;SDS011;3055;50.886;14.814;2023-07-02T13:07:26;1.83;;;1.70;;
6053;SDS011;3055;50.886;14.814;2023-07-02T13:09:55;1.57;;;1.47;;
6053;SDS011;3055;50.886;14.814;2023-07-02T13:12:22;1.53;;;1.30;;
6053;SDS011;3055;50.886;14.814;2023-07-02T13:14:49;2.57;;;1.53;;
6053;SDS011;3055;50.886;14.814;2023-07-02T13:17:16;1.80;;;1.50;;
6053;SDS011;3055;50.886;14.814;2023-07-02T13:19:43;1.40;;;1.30;;
6053;SDS011;3055;50.886;14.814;2023-07-02T13:22:10;1.70;;;1.37;;
6053;SDS011;3055;50.886;14.814;2023-07-02T13:24:39;2.30;;;1.37;;
6053;SDS011;3055;50.886;14.814;2023-07-02T13:27:07;2.50;;;1.70;;
6053;SDS011;3055;50.886;14.814;2023-07-02T13:29:37;3.13;;;2.00;;
6053;SDS011;3055;50.886;14.814;2023-07-02T13:32:05;4.10;;;1.70;;
6053;SDS011;3055;50.886;14.814;2023-07-02T13:34:32;1.67;;;1.53;;
6053;SDS011;3055;50.886;14.814;2023-07-02T13:37:00;1.80;;;1.50;;
6053;SDS011;3055;50.886;14.814;2023-07-02T13:39:28;7.87;;;1.50;;
6053;SDS011;3055;50.886;14.814;2023-07-02T13:41:56;2.23;;;1.53;;
6053;SDS011;3055;50.886;14.814;2023-07-02T13:44:23;2.67;;;1.40;;
6053;SDS011;3055;50.886;14.814;2023-07-02T13:46:50;1.40;;;1.30;;
6053;SDS011;3055;50.886;14.814;2023-07-02T13:49:18;3.07;;;1.40;;
6053;SDS011;3055;50.886;14.814;2023-07-02T13:51:46;1.40;;;1.27;;
6053;SDS011;3055;50.886;14.814;2023-07-02T13:54:14;1.97;;;1.50;;
6053;SDS011;3055;50.886;14.814;2023-07-02T13:56:43;1.30;;;1.20;;
6053;SDS011;3055;50.886;14.814;2023-07-02T13:59:12;1.37;;;1.27;;
6053;SDS011;3055;50.886;14.814;2023-07-02T14:01:39;1.60;;;1.50;;
6053;SDS011;3055;50.886;14.814;2023-07-02T14:04:06;2.23;;;1.50;;
6053;SDS011;3055;50.886;14.814;2023-07-02T14:06:33;1.90;;;1.57;;
6053;SDS011;3055;50.886;14.814;2023-07-02T14:09:00;1.77;;;1.67;;
6053;SDS011;3055;50.886;14.814;2023-07-02T14:11:28;2.30;;;1.80;;
6053;SDS011;3055;50.886;14.814;2023-07-02T14:13:55;3.13;;;1.37;;
6053;SDS011;3055;50.886;14.814;2023-07-02T14:16:24;1.70;;;1.60;;
6053;SDS011;3055;50.886;14.814;2023-07-02T14:18:51;4.60;;;1.60;;
6053;SDS011;3055;50.886;14.814;2023-07-02T14:21:18;2.20;;;1.67;;
6053;SDS011;3055;50.886;14.814;2023-07-02T14:23:45;3.57;;;1.93;;
6053;SDS011;3055;50.886;14.814;2023-07-02T14:26:12;1.50;;;1.40;;
6053;SDS011;3055;50.886;14.814;2023-07-02T14:28:39;1.93;;;1.30;;
6053;SDS011;3055;50.886;14.814;2023-07-02T14:31:06;6.03;;;1.53;;
6053;SDS011;3055;50.886;14.814;2023-07-02T14:33:35;1.90;;;1.80;;
6053;SDS011;3055;50.886;14.814;2023-07-02T14:36:04;3.93;;;1.70;;
6053;SDS011;3055;50.886;14.814;2023-07-02T14:38:32;2.67;;;1.67;;
6053;SDS011;3055;50.886;14.814;2023-07-02T14:41:00;1.53;;;1.40;;
6053;SDS011;3055;50.886;14.814;2023-07-02T14:43:28;4.90;;;4.50;;
6053;SDS011;3055;50.886;14.814;2023-07-02T14:45:58;3.77;;;3.30;;
6053;SDS011;3055;50.886;14.814;2023-07-02T14:48:27;3.30;;;2.60;;
6053;SDS011;3055;50.886;14.814;2023-07-02T14:50:56;2.27;;;2.00;;
6053;SDS011;3055;50.886;14.814;2023-07-02T14:53:24;1.73;;;1.63;;
6053;SDS011;3055;50.886;14.814;2023-07-02T14:55:53;1.63;;;1.50;;
6053;SDS011;3055;50.886;14.814;2023-07-02T14:58:21;2.67;;;1.73;;
6053;SDS011;3055;50.886;14.814;2023-07-02T15:00:49;2.40;;;1.80;;
6053;SDS011;3055;50.886;14.814;2023-07-02T15:03:18;1.67;;;1.57;;
6053;SDS011;3055;50.886;14.814;2023-07-02T15:05:47;3.27;;;1.67;;
6053;SDS011;3055;50.886;14.814;2023-07-02T15:08:17;1.67;;;1.50;;
6053;SDS011;3055;50.886;14.814;2023-07-02T15:10:46;2.53;;;1.73;;
6053;SDS011;3055;50.886;14.814;2023-07-02T15:13:15;2.83;;;1.70;;
6053;SDS011;3055;50.886;14.814;2023-07-02T15:15:43;4.10;;;2.17;;
6053;SDS011;3055;50.886;14.814;2023-07-02T15:18:11;4.20;;;2.10;;
6053;SDS011;3055;50.886;14.814;2023-07-02T15:20:38;3.27;;;1.90;;
6053;SDS011;3055;50.886;14.814;2023-07-02T15:23:06;2.27;;;2.07;;
6053;SDS011;3055;50.886;14.814;2023-07-02T15:25:35;3.83;;;2.23;;
6053;SDS011;3055;50.886;14.814;2023-07-02T15:28:02;2.97;;;2.27;;
6053;SDS011;3055;50.886;14.814;2023-07-02T15:30:29;3.50;;;2.10;;
6053;SDS011;3055;50.886;14.814;2023-07-02T15:32:56;3.30;;;1.90;;